sensor_id;sensor_type;location;lat;lon;timestamp;pressure;altitude;pressure_sealevel;temperature;humidity
20825;BME280;10573;50.936;6.978;2024-03-25T00:00:47;100385.84;;;9.13;63.82
20825;BME280;10573;50.936;6.978;2024-03-25T00:03:31;100389.47;;;8.84;64.25
20825;BME280;10573;50.936;6.978;2024-03-25T00:06:16;100394.28;;;8.90;64.04
20825;BME280;10573;50.936;6.978;2024-03-25T00:09:00;100395.16;;;8.71;64.99
20825;BME280;10573;50.936;6.978;2024-03-25T00:11:47;100398.59;;;8.83;64.67
20825;BME280;10573;50.936;6.978;2024-03-25T00:14:31;100404.72;;;8.75;64.75
20825;BME280;10573;50.936;6.978;2024-03-25T00:17:15;100408.72;;;8.51;65.17
20825;BME280;10573;50.936;6.978;2024-03-25T00:20:00;100411.66;;;8.38;65.60
20825;BME280;10573;50.936;6.978;2024-03-25T00:22:44;100409.50;;;8.32;65.92
20825;BME280;10573;50.936;6.978;2024-03-25T00:25:29;100401.72;;;8.68;65.27
20825;BME280;10573;50.936;6.978;2024-03-25T00:28:13;100395.16;;;8.61;65.08
20825;BME280;10573;50.936;6.978;2024-03-25T00:30:58;100400.44;;;8.63;65.17
20825;BME280;10573;50.936;6.978;2024-03-25T00:33:42;100396.16;;;8.60;65.12
20825;BME280;10573;50.936;6.978;2024-03-25T00:36:26;100399.84;;;8.49;65.33
20825;BME280;10573;50.936;6.978;2024-03-25T00:39:10;100399.84;;;8.59;65.53
20825;BME280;10573;50.936;6.978;2024-03-25T00:41:54;100407.44;;;8.55;65.64
20825;BME280;10573;50.936;6.978;2024-03-25T00:44:39;100413.38;;;8.39;65.77
20825;BME280;10573;50.936;6.978;2024-03-25T00:47:23;100393.72;;;8.57;65.77
20825;BME280;10573;50.936;6.978;2024-03-25T00:50:07;100403.97;;;8.44;66.67
20825;BME280;10573;50.936;6.978;2024-03-25T00:52:51;100403.16;;;8.63;65.85
20825;BME280;10573;50.936;6.978;2024-03-25T00:55:35;100399.06;;;8.28;66.67
20825;BME280;10573;50.936;6.978;2024-03-25T00:58:19;100401.28;;;8.53;66.40
20825;BME280;10573;50.936;6.978;2024-03-25T01:01:03;100397.81;;;8.42;66.75
20825;BME280;10573;50.936;6.978;2024-03-25T01:03:47;100400.06;;;8.36;67.13
20825;BME280;10573;50.936;6.978;2024-03-25T01:06:31;100393.28;;;8.52;66.68
20825;BME280;10573;50.936;6.978;2024-03-25T01:09:15;100401.94;;;8.26;67.33
20825;BME280;10573;50.936;6.978;2024-03-25T01:12:00;100395.41;;;8.48;66.98
20825;BME280;10573;50.936;6.978;2024-03-25T01:14:44;100397.66;;;8.33;66.82
20825;BME280;10573;50.936;6.978;2024-03-25T01:17:28;100396.94;;;8.31;67.21
20825;BME280;10573;50.936;6.978;2024-03-25T01:20:12;100397.88;;;8.61;66.79
20825;BME280;10573;50.936;6.978;2024-03-25T01:22:55;100397.44;;;8.66;66.20
20825;BME280;10573;50.936;6.978;2024-03-25T01:25:39;100395.88;;;8.83;66.17
20825;BME280;10573;50.936;6.978;2024-03-25T01:28:23;100401.97;;;8.46;66.67
20825;BME280;10573;50.936;6.978;2024-03-25T01:31:08;100392.88;;;8.66;66.47
20825;BME280;10573;50.936;6.978;2024-03-25T01:33:52;100402.56;;;8.59;66.57
20825;BME280;10573;50.936;6.978;2024-03-25T01:36:36;100398.78;;;8.31;66.71
20825;BME280;10573;50.936;6.978;2024-03-25T01:39:20;100399.75;;;8.70;66.22
20825;BME280;10573;50.936;6.978;2024-03-25T01:42:04;100406.56;;;8.04;67.17
20825;BME280;10573;50.936;6.978;2024-03-25T01:44:48;100402.00;;;8.55;66.53
20825;BME280;10573;50.936;6.978;2024-03-25T01:47:32;100403.06;;;8.33;66.93
20825;BME280;10573;50.936;6.978;2024-03-25T01:50:19;100406.69;;;8.44;66.89
20825;BME280;10573;50.936;6.978;2024-03-25T01:53:03;100400.75;;;8.19;67.28
20825;BME280;10573;50.936;6.978;2024-03-25T01:55:48;100400.59;;;8.11;67.58
20825;BME280;10573;50.936;6.978;2024-03-25T01:58:32;100402.22;;;7.92;68.15
20825;BME280;10573;50.936;6.978;2024-03-25T02:01:17;100401.31;;;8.13;67.38
20825;BME280;10573;50.936;6.978;2024-03-25T02:04:02;100390.66;;;8.40;66.76
20825;BME280;10573;50.936;6.978;2024-03-25T02:06:46;100400.91;;;8.27;67.11
20825;BME280;10573;50.936;6.978;2024-03-25T02:09:31;100396.28;;;8.49;66.42
20825;BME280;10573;50.936;6.978;2024-03-25T02:12:15;100402.47;;;8.30;66.42
20825;BME280;10573;50.936;6.978;2024-03-25T02:14:59;100405.56;;;8.46;66.42
20825;BME280;10573;50.936;6.978;2024-03-25T02:17:43;100412.63;;;8.28;66.50
20825;BME280;10573;50.936;6.978;2024-03-25T02:20:27;100414.75;;;8.14;66.97
20825;BME280;10573;50.936;6.978;2024-03-25T02:23:12;100410.38;;;8.43;66.62
20825;BME280;10573;50.936;6.978;2024-03-25T02:25:55;100411.94;;;8.35;66.13
20825;BME280;10573;50.936;6.978;2024-03-25T02:28:39;100412.41;;;8.00;66.98
20825;BME280;10573;50.936;6.978;2024-03-25T02:31:23;100414.13;;;8.01;67.40
20825;BME280;10573;50.936;6.978;2024-03-25T02:34:07;100417.28;;;8.47;66.04
20825;BME280;10573;50.936;6.978;2024-03-25T02:36:52;100412.78;;;8.36;65.88
20825;BME280;10573;50.936;6.978;2024-03-25T02:39:36;100402.88;;;8.56;65.50
20825;BME280;10573;50.936;6.978;2024-03-25T02:42:21;100408.50;;;8.33;65.26
20825;BME280;10573;50.936;6.978;2024-03-25T02:45:05;100401.34;;;8.32;65.56
20825;BME280;10573;50.936;6.978;2024-03-25T02:47:50;100393.44;;;8.60;64.98
20825;BME280;10573;50.936;6.978;2024-03-25T02:50:34;100403.03;;;8.14;66.14
20825;BME280;10573;50.936;6.978;2024-03-25T02:53:18;100402.78;;;8.36;65.41
20825;BME280;10573;50.936;6.978;2024-03-25T02:56:02;100402.00;;;8.15;65.71
20825;BME280;10573;50.936;6.978;2024-03-25T02:58:46;100410.38;;;8.33;65.60
20825;BME280;10573;50.936;6.978;2024-03-25T03:01:30;100404.59;;;8.16;65.60
20825;BME280;10573;50.936;6.978;2024-03-25T03:04:14;100402.00;;;8.15;65.95
20825;BME280;10573;50.936;6.978;2024-03-25T03:06:58;100405.56;;;8.05;66.08
20825;BME280;10573;50.936;6.978;2024-03-25T03:09:42;100401.94;;;8.26;65.61
20825;BME280;10573;50.936;6.978;2024-03-25T03:12:26;100399.38;;;8.34;65.18
20825;BME280;10573;50.936;6.978;2024-03-25T03:15:10;100384.69;;;8.47;64.79
20825;BME280;10573;50.936;6.978;2024-03-25T03:17:54;100398.22;;;8.37;65.12
20825;BME280;10573;50.936;6.978;2024-03-25T03:20:38;100387.28;;;8.48;64.71
20825;BME280;10573;50.936;6.978;2024-03-25T03:23:22;100381.34;;;8.33;65.02
20825;BME280;10573;50.936;6.978;2024-03-25T03:26:06;100385.75;;;8.15;65.47
20825;BME280;10573;50.936;6.978;2024-03-25T03:28:51;100384.97;;;8.03;65.64
20825;BME280;10573;50.936;6.978;2024-03-25T03:31:36;100380.34;;;8.25;65.33
20825;BME280;10573;50.936;6.978;2024-03-25T03:34:20;100382.94;;;8.26;65.37
20825;BME280;10573;50.936;6.978;2024-03-25T03:37:04;100388.59;;;8.13;65.62
20825;BME280;10573;50.936;6.978;2024-03-25T03:39:49;100385.28;;;8.10;66.24
20825;BME280;10573;50.936;6.978;2024-03-25T03:42:33;100388.75;;;8.12;66.11
20825;BME280;10573;50.936;6.978;2024-03-25T03:45:17;100393.34;;;8.21;65.46
20825;BME280;10573;50.936;6.978;2024-03-25T03:48:01;100396.22;;;8.29;65.33
20825;BME280;10573;50.936;6.978;2024-03-25T03:50:45;100399.59;;;8.21;65.34
20825;BME280;10573;50.936;6.978;2024-03-25T03:53:29;100404.94;;;8.43;64.90
20825;BME280;10573;50.936;6.978;2024-03-25T03:56:13;100395.38;;;8.38;65.18
20825;BME280;10573;50.936;6.978;2024-03-25T03:58:57;100390.91;;;8.18;65.28
20825;BME280;10573;50.936;6.978;2024-03-25T04:01:41;100382.47;;;8.21;65.34
20825;BME280;10573;50.936;6.978;2024-03-25T04:04:25;100394.38;;;7.89;65.91
20825;BME280;10573;50.936;6.978;2024-03-25T04:07:09;100397.09;;;7.99;65.73
20825;BME280;10573;50.936;6.978;2024-03-25T04:09:53;100398.69;;;8.01;66.00
20825;BME280;10573;50.936;6.978;2024-03-25T04:12:39;100399.06;;;8.18;65.65
20825;BME280;10573;50.936;6.978;2024-03-25T04:15:23;100398.13;;;7.98;65.84
20825;BME280;10573;50.936;6.978;2024-03-25T04:18:08;100402.88;;;7.75;66.34
20825;BME280;10573;50.936;6.978;2024-03-25T04:20:54;100403.16;;;7.71;66.57
20825;BME280;10573;50.936;6.978;2024-03-25T04:23:37;100400.13;;;7.44;67.11
20825;BME280;10573;50.936;6.978;2024-03-25T04:26:21;100394.91;;;7.83;66.25
20825;BME280;10573;50.936;6.978;2024-03-25T04:29:05;100399.50;;;7.92;66.04
20825;BME280;10573;50.936;6.978;2024-03-25T04:31:52;100388.13;;;7.98;65.61
20825;BME280;10573;50.936;6.978;2024-03-25T04:34:36;100394.91;;;7.83;66.36
20825;BME280;10573;50.936;6.978;2024-03-25T04:37:20;100396.09;;;7.90;66.04
20825;BME280;10573;50.936;6.978;2024-03-25T04:40:05;100390.53;;;7.92;66.12
20825;BME280;10573;50.936;6.978;2024-03-25T04:42:49;100397.28;;;7.45;67.09
20825;BME280;10573;50.936;6.978;2024-03-25T04:45:33;100400.69;;;7.37;67.43
20825;BME280;10573;50.936;6.978;2024-03-25T04:48:17;100396.16;;;7.48;66.97
20825;BME280;10573;50.936;6.978;2024-03-25T04:51:02;100396.09;;;7.59;67.05
20825;BME280;10573;50.936;6.978;2024-03-25T04:53:46;100395.91;;;7.51;67.04
20825;BME280;10573;50.936;6.978;2024-03-25T04:56:30;100407.13;;;7.67;66.88
20825;BME280;10573;50.936;6.978;2024-03-25T04:59:15;100402.19;;;7.51;67.23
20825;BME280;10573;50.936;6.978;2024-03-25T05:01:59;100398.63;;;7.51;67.11
20825;BME280;10573;50.936;6.978;2024-03-25T05:04:43;100400.13;;;7.44;67.42
20825;BME280;10573;50.936;6.978;2024-03-25T05:07:27;100403.41;;;7.37;67.75
20825;BME280;10573;50.936;6.978;2024-03-25T05:10:11;100399.28;;;7.43;67.15
20825;BME280;10573;50.936;6.978;2024-03-25T05:12:55;100405.63;;;7.11;68.09
20825;BME280;10573;50.936;6.978;2024-03-25T05:15:40;100397.97;;;7.16;68.38
20825;BME280;10573;50.936;6.978;2024-03-25T05:18:24;100406.28;;;7.25;68.18
20825;BME280;10573;50.936;6.978;2024-03-25T05:21:08;100411.94;;;7.12;68.14
20825;BME280;10573;50.936;6.978;2024-03-25T05:23:53;100417.31;;;7.33;68.13
20825;BME280;10573;50.936;6.978;2024-03-25T05:26:37;100410.66;;;7.37;67.83
20825;BME280;10573;50.936;6.978;2024-03-25T05:29:21;100405.09;;;7.38;67.67
20825;BME280;10573;50.936;6.978;2024-03-25T05:32:05;100401.41;;;7.39;67.38
20825;BME280;10573;50.936;6.978;2024-03-25T05:34:49;100403.88;;;7.43;67.50
20825;BME280;10573;50.936;6.978;2024-03-25T05:37:33;100405.69;;;7.42;67.48
20825;BME280;10573;50.936;6.978;2024-03-25T05:40:18;100407.84;;;7.69;67.46
20825;BME280;10573;50.936;6.978;2024-03-25T05:43:02;100407.41;;;7.64;66.69
20825;BME280;10573;50.936;6.978;2024-03-25T05:45:53;100402.00;;;7.22;67.06
20825;BME280;10573;50.936;6.978;2024-03-25T05:48:37;100398.22;;;7.34;66.98
20825;BME280;10573;50.936;6.978;2024-03-25T05:51:21;100398.78;;;7.28;67.28
20825;BME280;10573;50.936;6.978;2024-03-25T05:54:05;100402.19;;;7.51;66.86
20825;BME280;10573;50.936;6.978;2024-03-25T05:56:49;100409.81;;;7.36;66.87
20825;BME280;10573;50.936;6.978;2024-03-25T05:59:33;100413.72;;;6.90;68.31
20825;BME280;10573;50.936;6.978;2024-03-25T06:02:17;100421.16;;;7.30;67.44
20825;BME280;10573;50.936;6.978;2024-03-25T06:05:01;100414.38;;;7.36;67.13
20825;BME280;10573;50.936;6.978;2024-03-25T06:07:45;100416.22;;;7.35;66.98
20825;BME280;10573;50.936;6.978;2024-03-25T06:10:29;100423.03;;;7.51;66.77
20825;BME280;10573;50.936;6.978;2024-03-25T06:13:13;100426.56;;;7.72;66.90
20825;BME280;10573;50.936;6.978;2024-03-25T06:15:57;100419.69;;;7.68;66.17
20825;BME280;10573;50.936;6.978;2024-03-25T06:18:42;100420.34;;;7.61;66.17
20825;BME280;10573;50.936;6.978;2024-03-25T06:21:26;100418.31;;;7.84;65.84
20825;BME280;10573;50.936;6.978;2024-03-25T06:24:09;100405.91;;;8.22;64.58
20825;BME280;10573;50.936;6.978;2024-03-25T06:26:55;100415.34;;;8.18;64.22
20825;BME280;10573;50.936;6.978;2024-03-25T06:29:40;100416.03;;;8.20;63.90
20825;BME280;10573;50.936;6.978;2024-03-25T06:32:25;100419.47;;;8.22;64.07
20825;BME280;10573;50.936;6.978;2024-03-25T06:35:28;100422.97;;;8.03;63.92
20825;BME280;10573;50.936;6.978;2024-03-25T06:38:12;100419.69;;;7.99;64.33
20825;BME280;10573;50.936;6.978;2024-03-25T06:40:56;100423.53;;;7.97;64.32
20825;BME280;10573;50.936;6.978;2024-03-25T06:43:40;100412.63;;;8.28;63.91
20825;BME280;10573;50.936;6.978;2024-03-25T06:46:24;100416.34;;;8.36;63.31
20825;BME280;10573;50.936;6.978;2024-03-25T06:49:09;100429.38;;;8.33;63.38
20825;BME280;10573;50.936;6.978;2024-03-25T06:51:53;100428.22;;;8.35;63.56
20825;BME280;10573;50.936;6.978;2024-03-25T06:54:37;100429.56;;;8.51;63.42
20825;BME280;10573;50.936;6.978;2024-03-25T06:57:21;100430.16;;;8.14;63.52
20825;BME280;10573;50.936;6.978;2024-03-25T07:00:05;100425.88;;;8.52;62.55
20825;BME280;10573;50.936;6.978;2024-03-25T07:02:56;100429.53;;;8.41;62.93
20825;BME280;10573;50.936;6.978;2024-03-25T07:05:41;100426.56;;;8.54;62.84
20825;BME280;10573;50.936;6.978;2024-03-25T07:08:28;100431.31;;;8.21;62.92
20825;BME280;10573;50.936;6.978;2024-03-25T07:11:14;100425.81;;;8.42;62.99
20825;BME280;10573;50.936;6.978;2024-03-25T07:13:58;100432.63;;;8.36;62.43
20825;BME280;10573;50.936;6.978;2024-03-25T07:16:42;100427.88;;;8.60;62.00
20825;BME280;10573;50.936;6.978;2024-03-25T07:19:26;100422.88;;;8.94;60.64
20825;BME280;10573;50.936;6.978;2024-03-25T07:22:11;100422.75;;;9.35;60.41
20825;BME280;10573;50.936;6.978;2024-03-25T07:24:55;100415.03;;;8.91;60.16
20825;BME280;10573;50.936;6.978;2024-03-25T07:27:40;100412.16;;;9.22;59.93
20825;BME280;10573;50.936;6.978;2024-03-25T07:30:24;100408.47;;;9.70;58.46
20825;BME280;10573;50.936;6.978;2024-03-25T07:33:17;100400.69;;;9.85;57.55
20825;BME280;10573;50.936;6.978;2024-03-25T07:36:02;100399.00;;;10.40;56.74
20825;BME280;10573;50.936;6.978;2024-03-25T07:38:46;100397.34;;;10.57;55.66
20825;BME280;10573;50.936;6.978;2024-03-25T07:41:29;100383.41;;;10.96;54.61
20825;BME280;10573;50.936;6.978;2024-03-25T07:44:14;100396.47;;;10.74;54.60
20825;BME280;10573;50.936;6.978;2024-03-25T07:46:58;100392.19;;;11.34;53.43
20825;BME280;10573;50.936;6.978;2024-03-25T07:49:42;100384.47;;;11.74;52.04
20825;BME280;10573;50.936;6.978;2024-03-25T07:52:27;100386.66;;;11.70;52.12
20825;BME280;10573;50.936;6.978;2024-03-25T07:55:11;100377.44;;;12.49;50.74
20825;BME280;10573;50.936;6.978;2024-03-25T07:57:56;100362.81;;;12.91;49.82
20825;BME280;10573;50.936;6.978;2024-03-25T08:00:40;100359.41;;;13.14;48.99
20825;BME280;10573;50.936;6.978;2024-03-25T08:03:24;100375.47;;;13.00;49.87
20825;BME280;10573;50.936;6.978;2024-03-25T08:06:09;100358.97;;;13.74;47.19
20825;BME280;10573;50.936;6.978;2024-03-25T08:08:53;100366.91;;;13.53;47.45
20825;BME280;10573;50.936;6.978;2024-03-25T08:11:37;100362.72;;;13.73;46.55
20825;BME280;10573;50.936;6.978;2024-03-25T08:14:21;100353.50;;;14.77;44.82
20825;BME280;10573;50.936;6.978;2024-03-25T08:17:06;100346.69;;;14.96;43.91
20825;BME280;10573;50.936;6.978;2024-03-25T08:19:50;100345.75;;;15.42;43.15
20825;BME280;10573;50.936;6.978;2024-03-25T08:22:34;100354.53;;;14.44;44.08
20825;BME280;10573;50.936;6.978;2024-03-25T08:25:18;100355.47;;;14.37;44.33
20825;BME280;10573;50.936;6.978;2024-03-25T08:28:02;100340.44;;;15.25;42.95
20825;BME280;10573;50.936;6.978;2024-03-25T08:30:46;100325.81;;;16.30;40.81
20825;BME280;10573;50.936;6.978;2024-03-25T08:33:30;100336.25;;;15.30;41.48
20825;BME280;10573;50.936;6.978;2024-03-25T08:36:15;100357.38;;;14.28;43.20
20825;BME280;10573;50.936;6.978;2024-03-25T08:38:59;100354.66;;;14.51;43.98
20825;BME280;10573;50.936;6.978;2024-03-25T08:41:43;100347.63;;;15.41;42.09
20825;BME280;10573;50.936;6.978;2024-03-25T08:44:27;100333.78;;;16.24;40.49
20825;BME280;10573;50.936;6.978;2024-03-25T08:47:10;100341.09;;;16.32;40.87
20825;BME280;10573;50.936;6.978;2024-03-25T08:49:55;100345.88;;;14.87;41.44
20825;BME280;10573;50.936;6.978;2024-03-25T08:52:38;100341.44;;;15.09;40.49
20825;BME280;10573;50.936;6.978;2024-03-25T08:55:23;100332.41;;;15.54;39.65
20825;BME280;10573;50.936;6.978;2024-03-25T08:58:07;100322.00;;;16.46;38.13
20825;BME280;10573;50.936;6.978;2024-03-25T09:00:51;100323.66;;;17.05;38.40
20825;BME280;10573;50.936;6.978;2024-03-25T09:03:35;100321.53;;;17.28;37.96
20825;BME280;10573;50.936;6.978;2024-03-25T09:06:19;100317.84;;;17.50;37.48
20825;BME280;10573;50.936;6.978;2024-03-25T09:09:03;100319.50;;;17.79;36.42
20825;BME280;10573;50.936;6.978;2024-03-25T09:12:06;100334.56;;;16.03;39.08
20825;BME280;10573;50.936;6.978;2024-03-25T09:14:50;100346.00;;;14.94;40.18
20825;BME280;10573;50.936;6.978;2024-03-25T09:17:36;100351.19;;;14.66;41.73
20825;BME280;10573;50.936;6.978;2024-03-25T09:20:20;100344.97;;;14.40;42.05
20825;BME280;10573;50.936;6.978;2024-03-25T09:23:04;100358.84;;;14.07;42.63
20825;BME280;10573;50.936;6.978;2024-03-25T09:25:54;100356.31;;;13.50;43.67
20825;BME280;10573;50.936;6.978;2024-03-25T09:28:38;100353.94;;;13.05;44.68
20825;BME280;10573;50.936;6.978;2024-03-25T09:31:24;100345.03;;;12.87;45.23
20825;BME280;10573;50.936;6.978;2024-03-25T09:34:08;100347.09;;;13.01;45.94
20825;BME280;10573;50.936;6.978;2024-03-25T09:36:52;100348.78;;;12.86;45.87
20825;BME280;10573;50.936;6.978;2024-03-25T09:39:36;100348.94;;;12.59;45.66
20825;BME280;10573;50.936;6.978;2024-03-25T09:42:25;100344.16;;;12.53;45.14
20825;BME280;10573;50.936;6.978;2024-03-25T09:45:10;100341.97;;;12.73;44.78
20825;BME280;10573;50.936;6.978;2024-03-25T09:47:55;100337.50;;;12.72;44.25
20825;BME280;10573;50.936;6.978;2024-03-25T09:50:40;100327.25;;;12.66;44.33
20825;BME280;10573;50.936;6.978;2024-03-25T09:53:24;100336.50;;;12.65;45.11
20825;BME280;10573;50.936;6.978;2024-03-25T09:56:09;100331.69;;;12.75;44.78
20825;BME280;10573;50.936;6.978;2024-03-25T09:58:53;100327.59;;;12.47;45.21
20825;BME280;10573;50.936;6.978;2024-03-25T10:01:38;100332.72;;;12.66;45.61
20825;BME280;10573;50.936;6.978;2024-03-25T10:04:23;100320.41;;;12.54;44.86
20825;BME280;10573;50.936;6.978;2024-03-25T10:07:07;100306.44;;;12.82;44.27
20825;BME280;10573;50.936;6.978;2024-03-25T10:09:51;100299.25;;;13.05;43.94
20825;BME280;10573;50.936;6.978;2024-03-25T10:12:38;100302.66;;;12.91;43.97
20825;BME280;10573;50.936;6.978;2024-03-25T10:15:22;100301.94;;;13.22;44.46
20825;BME280;10573;50.936;6.978;2024-03-25T10:18:06;100285.16;;;13.33;43.18
20825;BME280;10573;50.936;6.978;2024-03-25T10:20:51;100280.41;;;13.19;42.68
20825;BME280;10573;50.936;6.978;2024-03-25T10:23:35;100274.53;;;13.47;41.74
20825;BME280;10573;50.936;6.978;2024-03-25T10:26:43;100271.88;;;13.78;41.53
20825;BME280;10573;50.936;6.978;2024-03-25T10:29:28;100254.94;;;13.74;40.11
20825;BME280;10573;50.936;6.978;2024-03-25T10:32:15;100250.97;;;13.29;40.32
20825;BME280;10573;50.936;6.978;2024-03-25T10:34:59;100254.03;;;13.34;39.95
20825;BME280;10573;50.936;6.978;2024-03-25T10:37:44;100243.34;;;13.64;40.76
20825;BME280;10573;50.936;6.978;2024-03-25T10:40:35;100235.59;;;13.20;39.84
20825;BME280;10573;50.936;6.978;2024-03-25T10:43:21;100237.50;;;13.19;40.03
20825;BME280;10573;50.936;6.978;2024-03-25T10:46:05;100229.44;;;13.26;38.82
20825;BME280;10573;50.936;6.978;2024-03-25T10:49:01;100221.75;;;13.38;39.11
20825;BME280;10573;50.936;6.978;2024-03-25T10:51:48;100207.03;;;13.39;39.54
20825;BME280;10573;50.936;6.978;2024-03-25T10:54:34;100217.44;;;13.43;39.81
20825;BME280;10573;50.936;6.978;2024-03-25T10:57:19;100214.91;;;13.73;39.80
20825;BME280;10573;50.936;6.978;2024-03-25T11:00:04;100204.53;;;13.92;38.69
20825;BME280;10573;50.936;6.978;2024-03-25T11:02:49;100184.97;;;14.03;37.34
20825;BME280;10573;50.936;6.978;2024-03-25T11:05:34;100190.53;;;13.87;36.10
20825;BME280;10573;50.936;6.978;2024-03-25T11:08:18;100181.34;;;13.80;36.52
20825;BME280;10573;50.936;6.978;2024-03-25T11:11:02;100174.84;;;13.81;36.50
20825;BME280;10573;50.936;6.978;2024-03-25T11:13:46;100178.78;;;13.78;36.63
20825;BME280;10573;50.936;6.978;2024-03-25T11:16:31;100182.75;;;14.22;37.25
20825;BME280;10573;50.936;6.978;2024-03-25T11:19:18;100187.91;;;14.63;38.39
20825;BME280;10573;50.936;6.978;2024-03-25T11:22:11;100174.72;;;14.82;37.12
20825;BME280;10573;50.936;6.978;2024-03-25T11:24:55;100165.78;;;14.65;37.04
20825;BME280;10573;50.936;6.978;2024-03-25T11:27:43;100165.84;;;14.56;37.01
20825;BME280;10573;50.936;6.978;2024-03-25T11:30:27;100161.09;;;14.73;37.01
20825;BME280;10573;50.936;6.978;2024-03-25T11:33:11;100164.78;;;14.42;37.02
20825;BME280;10573;50.936;6.978;2024-03-25T11:35:55;100165.44;;;14.83;37.92
20825;BME280;10573;50.936;6.978;2024-03-25T11:38:39;100165.91;;;14.86;38.18
20825;BME280;10573;50.936;6.978;2024-03-25T11:41:26;100150.69;;;14.84;37.27
20825;BME280;10573;50.936;6.978;2024-03-25T11:44:10;100149.00;;;15.13;37.96
20825;BME280;10573;50.936;6.978;2024-03-25T11:46:56;100139.91;;;15.27;36.97
20825;BME280;10573;50.936;6.978;2024-03-25T11:49:40;100119.56;;;14.76;36.10
20825;BME280;10573;50.936;6.978;2024-03-25T11:52:29;100122.28;;;15.36;36.44
20825;BME280;10573;50.936;6.978;2024-03-25T11:55:17;100118.16;;;15.25;35.77
20825;BME280;10573;50.936;6.978;2024-03-25T11:58:01;100119.03;;;14.96;35.33
20825;BME280;10573;50.936;6.978;2024-03-25T12:00:47;100115.47;;;15.17;35.92
20825;BME280;10573;50.936;6.978;2024-03-25T12:03:35;100109.50;;;15.65;35.84
20825;BME280;10573;50.936;6.978;2024-03-25T12:06:19;100110.41;;;15.87;35.78
20825;BME280;10573;50.936;6.978;2024-03-25T12:09:03;100103.78;;;15.82;35.21
20825;BME280;10573;50.936;6.978;2024-03-25T12:12:06;100090.25;;;16.87;33.96
20825;BME280;10573;50.936;6.978;2024-03-25T12:14:51;100086.84;;;18.22;31.38
20825;BME280;10573;50.936;6.978;2024-03-25T12:17:36;100072.75;;;18.97;30.30
20825;BME280;10573;50.936;6.978;2024-03-25T12:20:20;100063.78;;;20.43;28.37
20825;BME280;10573;50.936;6.978;2024-03-25T12:23:05;100062.78;;;20.56;27.91
20825;BME280;10573;50.936;6.978;2024-03-25T12:25:49;100064.19;;;19.96;28.17
20825;BME280;10573;50.936;6.978;2024-03-25T12:28:33;100062.19;;;20.79;28.06
20825;BME280;10573;50.936;6.978;2024-03-25T12:31:23;100046.06;;;21.86;26.00
20825;BME280;10573;50.936;6.978;2024-03-25T12:34:12;100046.78;;;22.59;25.37
20825;BME280;10573;50.936;6.978;2024-03-25T12:37:03;100048.94;;;22.81;24.92
20825;BME280;10573;50.936;6.978;2024-03-25T12:39:48;100041.28;;;21.93;25.34
20825;BME280;10573;50.936;6.978;2024-03-25T12:42:32;100040.03;;;21.77;25.68
20825;BME280;10573;50.936;6.978;2024-03-25T12:45:16;100032.91;;;23.11;24.89
20825;BME280;10573;50.936;6.978;2024-03-25T12:48:00;100035.06;;;22.69;25.39
20825;BME280;10573;50.936;6.978;2024-03-25T12:50:44;100043.69;;;21.89;25.68
20825;BME280;10573;50.936;6.978;2024-03-25T12:53:28;100039.41;;;23.29;24.56
20825;BME280;10573;50.936;6.978;2024-03-25T12:56:13;100023.69;;;24.49;23.76
20825;BME280;10573;50.936;6.978;2024-03-25T12:58:57;100015.69;;;23.55;24.56
20825;BME280;10573;50.936;6.978;2024-03-25T13:01:41;100014.69;;;24.41;23.53
20825;BME280;10573;50.936;6.978;2024-03-25T13:04:26;100015.53;;;24.81;22.38
20825;BME280;10573;50.936;6.978;2024-03-25T13:07:10;100010.56;;;23.06;24.22
20825;BME280;10573;50.936;6.978;2024-03-25T13:09:54;100010.63;;;22.83;24.72
20825;BME280;10573;50.936;6.978;2024-03-25T13:12:38;100003.03;;;22.78;22.92
20825;BME280;10573;50.936;6.978;2024-03-25T13:15:23;100004.41;;;21.62;23.77
20825;BME280;10573;50.936;6.978;2024-03-25T13:18:07;100003.34;;;20.84;24.70
20825;BME280;10573;50.936;6.978;2024-03-25T13:20:51;99989.31;;;22.00;24.50
20825;BME280;10573;50.936;6.978;2024-03-25T13:23:35;99980.84;;;21.95;25.18
20825;BME280;10573;50.936;6.978;2024-03-25T13:26:19;99984.38;;;23.02;23.81
20825;BME280;10573;50.936;6.978;2024-03-25T13:29:03;99973.38;;;22.07;24.13
20825;BME280;10573;50.936;6.978;2024-03-25T13:31:47;99972.78;;;22.29;24.22
20825;BME280;10573;50.936;6.978;2024-03-25T13:34:31;99955.63;;;21.85;24.64
20825;BME280;10573;50.936;6.978;2024-03-25T13:37:14;99947.31;;;22.56;24.38
20825;BME280;10573;50.936;6.978;2024-03-25T13:39:58;99946.47;;;22.96;23.41
20825;BME280;10573;50.936;6.978;2024-03-25T13:42:42;99950.16;;;22.85;22.88
20825;BME280;10573;50.936;6.978;2024-03-25T13:45:26;99930.34;;;22.81;23.35
20825;BME280;10573;50.936;6.978;2024-03-25T13:48:10;99919.56;;;22.96;23.39
20825;BME280;10573;50.936;6.978;2024-03-25T13:50:54;99915.75;;;24.34;22.16
20825;BME280;10573;50.936;6.978;2024-03-25T13:53:38;99907.78;;;23.69;22.12
20825;BME280;10573;50.936;6.978;2024-03-25T13:56:22;99908.34;;;24.22;22.09
20825;BME280;10573;50.936;6.978;2024-03-25T13:59:06;99893.47;;;23.43;23.15
20825;BME280;10573;50.936;6.978;2024-03-25T14:01:50;99896.25;;;23.94;22.49
20825;BME280;10573;50.936;6.978;2024-03-25T14:04:35;99904.28;;;23.91;21.84
20825;BME280;10573;50.936;6.978;2024-03-25T14:07:19;99898.16;;;22.97;22.30
20825;BME280;10573;50.936;6.978;2024-03-25T14:10:04;99892.69;;;24.16;22.00
20825;BME280;10573;50.936;6.978;2024-03-25T14:12:48;99877.03;;;23.93;22.13
20825;BME280;10573;50.936;6.978;2024-03-25T14:15:32;99870.72;;;24.20;21.52
20825;BME280;10573;50.936;6.978;2024-03-25T14:18:16;99861.09;;;25.26;20.87
20825;BME280;10573;50.936;6.978;2024-03-25T14:21:00;99866.78;;;26.17;20.72
20825;BME280;10573;50.936;6.978;2024-03-25T14:23:44;99874.66;;;25.18;20.49
20825;BME280;10573;50.936;6.978;2024-03-25T14:26:29;99874.25;;;23.93;21.74